sensor_id;sensor_type;location;lat;lon;timestamp;temperature;humidity
50606;DHT22;36557;53.572;10.170;2022-10-16T00:00:31;13.80;99.90
50606;DHT22;36557;53.572;10.170;2022-10-16T00:02:57;13.70;99.90
50606;DHT22;36557;53.572;10.170;2022-10-16T00:05:23;13.70;99.90
50606;DHT22;36557;53.572;10.170;2022-10-16T00:07:49;13.70;99.90
50606;DHT22;36557;53.572;10.170;2022-10-16T00:10:15;13.70;99.90
50606;DHT22;36557;53.572;10.170;2022-10-16T00:12:40;13.70;99.90
50606;DHT22;36557;53.572;10.170;2022-10-16T00:15:07;13.60;99.90
50606;DHT22;36557;53.572;10.170;2022-10-16T00:17:32;13.60;99.90
50606;DHT22;36557;53.572;10.170;2022-10-16T00:19:58;13.60;99.90
50606;DHT22;36557;53.572;10.170;2022-10-16T00:22:24;13.60;99.90
50606;DHT22;36557;53.572;10.170;2022-10-16T00:24:50;13.50;99.90
50606;DHT22;36557;53.572;10.170;2022-10-16T00:27:16;13.50;99.90
50606;DHT22;36557;53.572;10.170;2022-10-16T00:29:42;13.50;99.90
50606;DHT22;36557;53.572;10.170;2022-10-16T00:32:08;13.40;99.90
50606;DHT22;36557;53.572;10.170;2022-10-16T00:34:34;13.40;99.90
50606;DHT22;36557;53.572;10.170;2022-10-16T00:36:59;13.40;99.90
50606;DHT22;36557;53.572;10.170;2022-10-16T00:39:25;13.40;99.90
50606;DHT22;36557;53.572;10.170;2022-10-16T00:41:51;13.30;99.90
50606;DHT22;36557;53.572;10.170;2022-10-16T00:44:43;13.30;99.90
50606;DHT22;36557;53.572;10.170;2022-10-16T00:49:53;13.20;99.90
50606;DHT22;36557;53.572;10.170;2022-10-16T00:52:20;13.20;99.90
50606;DHT22;36557;53.572;10.170;2022-10-16T00:54:46;13.20;99.90
50606;DHT22;36557;53.572;10.170;2022-10-16T00:57:12;13.10;99.90
50606;DHT22;36557;53.572;10.170;2022-10-16T00:59:40;13.10;99.90
50606;DHT22;36557;53.572;10.170;2022-10-16T01:02:09;13.10;99.90
50606;DHT22;36557;53.572;10.170;2022-10-16T01:04:39;13.00;99.90
50606;DHT22;36557;53.572;10.170;2022-10-16T01:12:58;13.00;99.90
50606;DHT22;36557;53.572;10.170;2022-10-16T01:15:34;13.00;99.90
50606;DHT22;36557;53.572;10.170;2022-10-16T01:20:55;12.90;99.90
50606;DHT22;36557;53.572;10.170;2022-10-16T01:27:00;12.90;99.90
50606;DHT22;36557;53.572;10.170;2022-10-16T01:32:15;12.90;99.90
50606;DHT22;36557;53.572;10.170;2022-10-16T01:34:55;12.90;99.90
50606;DHT22;36557;53.572;10.170;2022-10-16T01:37:40;12.90;99.90
50606;DHT22;36557;53.572;10.170;2022-10-16T01:40:11;13.00;99.90
50606;DHT22;36557;53.572;10.170;2022-10-16T01:42:44;13.00;99.90
50606;DHT22;36557;53.572;10.170;2022-10-16T01:45:14;13.00;99.90
50606;DHT22;36557;53.572;10.170;2022-10-16T01:47:41;13.00;99.90
50606;DHT22;36557;53.572;10.170;2022-10-16T01:50:09;13.00;99.90
50606;DHT22;36557;53.572;10.170;2022-10-16T01:52:38;12.90;99.90
50606;DHT22;36557;53.572;10.170;2022-10-16T01:55:07;12.90;99.90
50606;DHT22;36557;53.572;10.170;2022-10-16T01:57:36;12.80;99.90
50606;DHT22;36557;53.572;10.170;2022-10-16T02:00:08;12.80;99.90
50606;DHT22;36557;53.572;10.170;2022-10-16T02:02:36;12.80;99.90
50606;DHT22;36557;53.572;10.170;2022-10-16T02:05:13;12.80;99.90
50606;DHT22;36557;53.572;10.170;2022-10-16T02:07:41;12.80;99.90
50606;DHT22;36557;53.572;10.170;2022-10-16T02:10:08;12.70;99.90
50606;DHT22;36557;53.572;10.170;2022-10-16T02:12:36;12.70;99.90
50606;DHT22;36557;53.572;10.170;2022-10-16T02:15:05;12.70;99.90
50606;DHT22;36557;53.572;10.170;2022-10-16T02:17:31;12.70;99.90
50606;DHT22;36557;53.572;10.170;2022-10-16T02:19:58;12.70;99.90
50606;DHT22;36557;53.572;10.170;2022-10-16T02:22:28;12.70;99.90
50606;DHT22;36557;53.572;10.170;2022-10-16T02:25:04;12.70;99.90
50606;DHT22;36557;53.572;10.170;2022-10-16T02:27:40;12.60;99.90
50606;DHT22;36557;53.572;10.170;2022-10-16T02:30:07;12.60;99.90
50606;DHT22;36557;53.572;10.170;2022-10-16T02:32:37;12.50;99.90
50606;DHT22;36557;53.572;10.170;2022-10-16T02:35:06;12.50;99.90
50606;DHT22;36557;53.572;10.170;2022-10-16T02:37:33;12.50;99.90
50606;DHT22;36557;53.572;10.170;2022-10-16T02:39:59;12.50;99.90
50606;DHT22;36557;53.572;10.170;2022-10-16T02:42:31;12.40;99.90
50606;DHT22;36557;53.572;10.170;2022-10-16T02:44:58;12.40;99.90
50606;DHT22;36557;53.572;10.170;2022-10-16T02:47:25;12.40;99.90
50606;DHT22;36557;53.572;10.170;2022-10-16T02:49:50;12.40;99.90
50606;DHT22;36557;53.572;10.170;2022-10-16T02:52:16;12.40;99.90
50606;DHT22;36557;53.572;10.170;2022-10-16T02:54:42;12.40;99.90
50606;DHT22;36557;53.572;10.170;2022-10-16T02:57:07;12.30;99.90
50606;DHT22;36557;53.572;10.170;2022-10-16T02:59:33;12.30;99.90
50606;DHT22;36557;53.572;10.170;2022-10-16T03:01:59;12.30;99.90
50606;DHT22;36557;53.572;10.170;2022-10-16T03:04:24;12.30;99.90
50606;DHT22;36557;53.572;10.170;2022-10-16T03:06:50;12.20;99.90
50606;DHT22;36557;53.572;10.170;2022-10-16T03:09:16;12.20;99.90
50606;DHT22;36557;53.572;10.170;2022-10-16T03:11:41;12.20;99.90
50606;DHT22;36557;53.572;10.170;2022-10-16T03:14:07;12.10;99.90
50606;DHT22;36557;53.572;10.170;2022-10-16T03:16:33;12.10;99.90
50606;DHT22;36557;53.572;10.170;2022-10-16T03:18:59;12.10;99.90
50606;DHT22;36557;53.572;10.170;2022-10-16T03:21:24;12.10;99.90
50606;DHT22;36557;53.572;10.170;2022-10-16T03:23:50;12.10;99.90
50606;DHT22;36557;53.572;10.170;2022-10-16T03:26:16;12.00;99.90
50606;DHT22;36557;53.572;10.170;2022-10-16T03:28:41;12.00;99.90
50606;DHT22;36557;53.572;10.170;2022-10-16T03:31:07;12.00;99.90
50606;DHT22;36557;53.572;10.170;2022-10-16T03:33:33;11.90;99.90
50606;DHT22;36557;53.572;10.170;2022-10-16T03:35:59;11.90;99.90
50606;DHT22;36557;53.572;10.170;2022-10-16T03:38:25;11.90;99.90
50606;DHT22;36557;53.572;10.170;2022-10-16T03:40:51;11.90;99.90
50606;DHT22;36557;53.572;10.170;2022-10-16T03:43:17;11.90;99.90
50606;DHT22;36557;53.572;10.170;2022-10-16T03:45:42;11.80;99.90
50606;DHT22;36557;53.572;10.170;2022-10-16T03:48:08;11.80;99.90
50606;DHT22;36557;53.572;10.170;2022-10-16T03:50:34;11.90;99.90
50606;DHT22;36557;53.572;10.170;2022-10-16T03:52:59;11.90;99.90
50606;DHT22;36557;53.572;10.170;2022-10-16T03:55:25;11.80;99.90
50606;DHT22;36557;53.572;10.170;2022-10-16T03:57:51;11.80;99.90
50606;DHT22;36557;53.572;10.170;2022-10-16T04:00:16;11.80;99.90
50606;DHT22;36557;53.572;10.170;2022-10-16T04:02:42;11.80;99.90
50606;DHT22;36557;53.572;10.170;2022-10-16T04:05:08;11.80;99.90
50606;DHT22;36557;53.572;10.170;2022-10-16T04:07:34;11.80;99.90
50606;DHT22;36557;53.572;10.170;2022-10-16T04:09:59;11.80;99.90
50606;DHT22;36557;53.572;10.170;2022-10-16T04:12:26;11.80;99.90
50606;DHT22;36557;53.572;10.170;2022-10-16T04:14:52;11.70;99.90
50606;DHT22;36557;53.572;10.170;2022-10-16T04:17:17;11.70;99.90
50606;DHT22;36557;53.572;10.170;2022-10-16T04:19:43;11.70;99.90
50606;DHT22;36557;53.572;10.170;2022-10-16T04:22:09;11.70;99.90
50606;DHT22;36557;53.572;10.170;2022-10-16T04:24:34;11.70;99.90
50606;DHT22;36557;53.572;10.170;2022-10-16T04:27:00;11.70;99.90
50606;DHT22;36557;53.572;10.170;2022-10-16T04:29:26;11.70;99.90
50606;DHT22;36557;53.572;10.170;2022-10-16T04:31:51;11.70;99.90
50606;DHT22;36557;53.572;10.170;2022-10-16T04:34:17;11.70;99.90
50606;DHT22;36557;53.572;10.170;2022-10-16T04:36:43;11.70;99.90
50606;DHT22;36557;53.572;10.170;2022-10-16T04:39:09;11.70;99.90
50606;DHT22;36557;53.572;10.170;2022-10-16T04:41:34;11.70;99.90
50606;DHT22;36557;53.572;10.170;2022-10-16T04:44:00;11.70;99.90
50606;DHT22;36557;53.572;10.170;2022-10-16T04:46:26;11.60;99.90
50606;DHT22;36557;53.572;10.170;2022-10-16T04:48:51;11.60;99.90
50606;DHT22;36557;53.572;10.170;2022-10-16T04:51:17;11.60;99.90
50606;DHT22;36557;53.572;10.170;2022-10-16T04:53:44;11.60;99.90
50606;DHT22;36557;53.572;10.170;2022-10-16T04:56:09;11.60;99.90
50606;DHT22;36557;53.572;10.170;2022-10-16T04:58:35;11.50;99.90
50606;DHT22;36557;53.572;10.170;2022-10-16T05:01:01;11.50;99.90
50606;DHT22;36557;53.572;10.170;2022-10-16T05:03:27;11.50;99.90
50606;DHT22;36557;53.572;10.170;2022-10-16T05:05:52;11.50;99.90
50606;DHT22;36557;53.572;10.170;2022-10-16T05:08:18;11.50;99.90
50606;DHT22;36557;53.572;10.170;2022-10-16T05:10:44;11.40;99.90
50606;DHT22;36557;53.572;10.170;2022-10-16T05:13:10;11.40;99.90
50606;DHT22;36557;53.572;10.170;2022-10-16T05:15:37;11.40;99.90
50606;DHT22;36557;53.572;10.170;2022-10-16T05:18:02;11.40;99.90
50606;DHT22;36557;53.572;10.170;2022-10-16T05:20:28;11.40;99.90
50606;DHT22;36557;53.572;10.170;2022-10-16T05:22:54;11.40;99.90
50606;DHT22;36557;53.572;10.170;2022-10-16T05:25:20;11.40;99.90
50606;DHT22;36557;53.572;10.170;2022-10-16T05:27:49;11.40;99.90
50606;DHT22;36557;53.572;10.170;2022-10-16T05:30:16;11.30;99.90
50606;DHT22;36557;53.572;10.170;2022-10-16T05:32:45;11.40;99.90
50606;DHT22;36557;53.572;10.170;2022-10-16T05:35:11;11.30;99.90
50606;DHT22;36557;53.572;10.170;2022-10-16T05:37:36;11.30;99.90
50606;DHT22;36557;53.572;10.170;2022-10-16T05:40:02;11.30;99.90
50606;DHT22;36557;53.572;10.170;2022-10-16T05:42:30;11.30;99.90
50606;DHT22;36557;53.572;10.170;2022-10-16T05:44:56;11.30;99.90
50606;DHT22;36557;53.572;10.170;2022-10-16T05:47:22;11.20;99.90
50606;DHT22;36557;53.572;10.170;2022-10-16T05:49:47;11.20;99.90
50606;DHT22;36557;53.572;10.170;2022-10-16T05:52:13;11.20;99.90
50606;DHT22;36557;53.572;10.170;2022-10-16T05:54:39;11.10;99.90
50606;DHT22;36557;53.572;10.170;2022-10-16T05:57:04;11.10;99.90
50606;DHT22;36557;53.572;10.170;2022-10-16T05:59:31;11.10;99.90
50606;DHT22;36557;53.572;10.170;2022-10-16T06:01:57;11.10;99.90
50606;DHT22;36557;53.572;10.170;2022-10-16T06:04:23;11.10;99.90
50606;DHT22;36557;53.572;10.170;2022-10-16T06:06:48;11.10;99.90
50606;DHT22;36557;53.572;10.170;2022-10-16T06:09:14;11.10;99.90
50606;DHT22;36557;53.572;10.170;2022-10-16T06:11:40;11.10;99.90
50606;DHT22;36557;53.572;10.170;2022-10-16T06:14:06;11.20;99.90
50606;DHT22;36557;53.572;10.170;2022-10-16T06:16:35;11.20;99.90
50606;DHT22;36557;53.572;10.170;2022-10-16T06:19:02;11.20;99.90
50606;DHT22;36557;53.572;10.170;2022-10-16T06:21:29;11.20;99.90
50606;DHT22;36557;53.572;10.170;2022-10-16T06:23:56;11.20;99.90
50606;DHT22;36557;53.572;10.170;2022-10-16T06:26:27;11.30;99.90
50606;DHT22;36557;53.572;10.170;2022-10-16T06:28:55;11.20;99.90
50606;DHT22;36557;53.572;10.170;2022-10-16T06:31:21;11.30;99.90
50606;DHT22;36557;53.572;10.170;2022-10-16T06:33:50;11.30;99.90
50606;DHT22;36557;53.572;10.170;2022-10-16T06:36:17;11.20;99.90
50606;DHT22;36557;53.572;10.170;2022-10-16T06:38:43;11.20;99.90
50606;DHT22;36557;53.572;10.170;2022-10-16T06:41:14;11.20;99.90
50606;DHT22;36557;53.572;10.170;2022-10-16T06:43:40;11.30;99.90
50606;DHT22;36557;53.572;10.170;2022-10-16T06:46:09;11.30;99.90
50606;DHT22;36557;53.572;10.170;2022-10-16T06:48:35;11.30;99.90
50606;DHT22;36557;53.572;10.170;2022-10-16T06:53:31;11.30;99.90
50606;DHT22;36557;53.572;10.170;2022-10-16T06:55:57;11.30;99.90
50606;DHT22;36557;53.572;10.170;2022-10-16T06:58:23;11.40;99.90
50606;DHT22;36557;53.572;10.170;2022-10-16T07:00:54;11.40;99.90
50606;DHT22;36557;53.572;10.170;2022-10-16T07:03:20;11.50;99.90
50606;DHT22;36557;53.572;10.170;2022-10-16T07:05:46;11.60;99.90
50606;DHT22;36557;53.572;10.170;2022-10-16T07:08:12;11.70;99.90
50606;DHT22;36557;53.572;10.170;2022-10-16T07:10:37;11.80;99.90
50606;DHT22;36557;53.572;10.170;2022-10-16T07:13:03;11.90;99.90
50606;DHT22;36557;53.572;10.170;2022-10-16T07:15:29;12.00;99.90
50606;DHT22;36557;53.572;10.170;2022-10-16T07:17:54;12.10;99.90
50606;DHT22;36557;53.572;10.170;2022-10-16T07:20:20;12.20;99.90
50606;DHT22;36557;53.572;10.170;2022-10-16T07:22:46;12.30;99.90
50606;DHT22;36557;53.572;10.170;2022-10-16T07:25:12;12.40;99.90
50606;DHT22;36557;53.572;10.170;2022-10-16T07:27:38;12.60;99.90
50606;DHT22;36557;53.572;10.170;2022-10-16T07:30:04;12.70;99.90
50606;DHT22;36557;53.572;10.170;2022-10-16T07:32:31;12.90;99.90
50606;DHT22;36557;53.572;10.170;2022-10-16T07:34:57;12.90;99.90
50606;DHT22;36557;53.572;10.170;2022-10-16T07:37:22;13.10;99.90
50606;DHT22;36557;53.572;10.170;2022-10-16T07:39:48;13.10;99.90
50606;DHT22;36557;53.572;10.170;2022-10-16T07:42:14;13.10;99.90
50606;DHT22;36557;53.572;10.170;2022-10-16T07:44:39;13.20;99.90
50606;DHT22;36557;53.572;10.170;2022-10-16T07:47:06;13.30;99.90
50606;DHT22;36557;53.572;10.170;2022-10-16T07:49:32;13.30;99.90
50606;DHT22;36557;53.572;10.170;2022-10-16T07:51:58;13.40;99.90
50606;DHT22;36557;53.572;10.170;2022-10-16T07:54:23;13.50;99.90
50606;DHT22;36557;53.572;10.170;2022-10-16T07:56:49;13.60;99.90
50606;DHT22;36557;53.572;10.170;2022-10-16T07:59:15;13.70;99.90
50606;DHT22;36557;53.572;10.170;2022-10-16T08:01:40;13.90;99.90
50606;DHT22;36557;53.572;10.170;2022-10-16T08:04:08;14.00;99.90
50606;DHT22;36557;53.572;10.170;2022-10-16T08:06:38;14.30;99.90
50606;DHT22;36557;53.572;10.170;2022-10-16T08:09:05;14.40;99.90
50606;DHT22;36557;53.572;10.170;2022-10-16T08:11:31;14.40;99.90
50606;DHT22;36557;53.572;10.170;2022-10-16T08:13:56;14.40;99.90
50606;DHT22;36557;53.572;10.170;2022-10-16T08:16:22;14.20;99.90
50606;DHT22;36557;53.572;10.170;2022-10-16T08:18:48;14.10;99.90
50606;DHT22;36557;53.572;10.170;2022-10-16T08:21:16;14.10;99.90
50606;DHT22;36557;53.572;10.170;2022-10-16T08:23:42;14.00;99.90
50606;DHT22;36557;53.572;10.170;2022-10-16T08:26:08;14.00;99.90
50606;DHT22;36557;53.572;10.170;2022-10-16T08:28:35;13.90;99.90
50606;DHT22;36557;53.572;10.170;2022-10-16T08:31:14;13.90;99.90
50606;DHT22;36557;53.572;10.170;2022-10-16T08:33:42;14.00;99.90
50606;DHT22;36557;53.572;10.170;2022-10-16T08:36:10;14.00;99.90
50606;DHT22;36557;53.572;10.170;2022-10-16T08:38:36;14.20;99.90
50606;DHT22;36557;53.572;10.170;2022-10-16T08:43:43;14.50;99.90
50606;DHT22;36557;53.572;10.170;2022-10-16T08:46:28;14.60;99.90
50606;DHT22;36557;53.572;10.170;2022-10-16T08:48:58;14.90;99.90
50606;DHT22;36557;53.572;10.170;2022-10-16T08:51:34;15.10;99.90
50606;DHT22;36557;53.572;10.170;2022-10-16T08:54:05;15.10;99.90
50606;DHT22;36557;53.572;10.170;2022-10-16T08:56:32;15.20;99.90
50606;DHT22;36557;53.572;10.170;2022-10-16T08:58:59;15.30;99.90
50606;DHT22;36557;53.572;10.170;2022-10-16T09:01:44;15.40;99.90
50606;DHT22;36557;53.572;10.170;2022-10-16T09:06:57;15.50;99.90
50606;DHT22;36557;53.572;10.170;2022-10-16T09:12:24;15.70;99.90
50606;DHT22;36557;53.572;10.170;2022-10-16T09:23:29;16.20;99.90
50606;DHT22;36557;53.572;10.170;2022-10-16T09:25:56;16.20;99.90
50606;DHT22;36557;53.572;10.170;2022-10-16T09:28:23;16.10;99.90
50606;DHT22;36557;53.572;10.170;2022-10-16T09:30:49;16.20;99.90
50606;DHT22;36557;53.572;10.170;2022-10-16T09:33:18;16.20;99.90
50606;DHT22;36557;53.572;10.170;2022-10-16T09:35:50;16.40;99.90
50606;DHT22;36557;53.572;10.170;2022-10-16T09:38:29;16.50;99.90
50606;DHT22;36557;53.572;10.170;2022-10-16T09:41:23;16.40;99.90
50606;DHT22;36557;53.572;10.170;2022-10-16T09:43:59;16.30;99.90
50606;DHT22;36557;53.572;10.170;2022-10-16T09:49:00;16.30;99.90
50606;DHT22;36557;53.572;10.170;2022-10-16T09:54:20;16.40;99.90
50606;DHT22;36557;53.572;10.170;2022-10-16T09:56:46;16.50;99.90
50606;DHT22;36557;53.572;10.170;2022-10-16T09:59:23;16.50;99.90
50606;DHT22;36557;53.572;10.170;2022-10-16T10:01:52;16.80;99.90
50606;DHT22;36557;53.572;10.170;2022-10-16T10:04:20;16.80;99.90
50606;DHT22;36557;53.572;10.170;2022-10-16T10:06:50;17.00;99.90
50606;DHT22;36557;53.572;10.170;2022-10-16T10:09:34;17.00;99.90
50606;DHT22;36557;53.572;10.170;2022-10-16T10:12:16;17.10;99.90
50606;DHT22;36557;53.572;10.170;2022-10-16T10:14:54;16.90;99.90
50606;DHT22;36557;53.572;10.170;2022-10-16T10:17:24;16.90;99.90
50606;DHT22;36557;53.572;10.170;2022-10-16T10:20:31;17.10;99.90
50606;DHT22;36557;53.572;10.170;2022-10-16T10:22:56;17.30;99.90
50606;DHT22;36557;53.572;10.170;2022-10-16T10:25:41;17.20;99.90
50606;DHT22;36557;53.572;10.170;2022-10-16T10:28:14;17.20;99.90
50606;DHT22;36557;53.572;10.170;2022-10-16T10:33:52;17.40;99.90
50606;DHT22;36557;53.572;10.170;2022-10-16T10:36:39;17.50;99.90
50606;DHT22;36557;53.572;10.170;2022-10-16T10:39:13;17.70;99.90
50606;DHT22;36557;53.572;10.170;2022-10-16T10:42:05;17.80;99.90
50606;DHT22;36557;53.572;10.170;2022-10-16T10:59:05;18.50;99.90
50606;DHT22;36557;53.572;10.170;2022-10-16T11:05:02;18.30;99.90
50606;DHT22;36557;53.572;10.170;2022-10-16T11:07:38;18.10;99.90
50606;DHT22;36557;53.572;10.170;2022-10-16T11:10:28;18.20;99.90
50606;DHT22;36557;53.572;10.170;2022-10-16T11:15:53;17.90;99.90
50606;DHT22;36557;53.572;10.170;2022-10-16T11:18:57;18.10;99.90
50606;DHT22;36557;53.572;10.170;2022-10-16T11:21:26;17.90;99.90
50606;DHT22;36557;53.572;10.170;2022-10-16T11:24:20;18.10;99.90
50606;DHT22;36557;53.572;10.170;2022-10-16T11:26:49;17.90;99.90
50606;DHT22;36557;53.572;10.170;2022-10-16T11:29:22;18.30;99.90
50606;DHT22;36557;53.572;10.170;2022-10-16T11:31:54;18.50;99.90
50606;DHT22;36557;53.572;10.170;2022-10-16T11:34:36;18.80;99.90
50606;DHT22;36557;53.572;10.170;2022-10-16T11:37:11;18.60;99.90
50606;DHT22;36557;53.572;10.170;2022-10-16T11:39:38;18.60;99.90
50606;DHT22;36557;53.572;10.170;2022-10-16T11:42:21;18.40;99.90
50606;DHT22;36557;53.572;10.170;2022-10-16T11:45:00;18.70;99.90
50606;DHT22;36557;53.572;10.170;2022-10-16T11:47:43;18.40;99.90
50606;DHT22;36557;53.572;10.170;2022-10-16T11:54:16;18.40;99.90
50606;DHT22;36557;53.572;10.170;2022-10-16T11:56:13;18.30;99.90
50606;DHT22;36557;53.572;10.170;2022-10-16T12:02:16;18.50;99.90
50606;DHT22;36557;53.572;10.170;2022-10-16T12:07:06;18.50;99.90
50606;DHT22;36557;53.572;10.170;2022-10-16T12:09:34;18.80;99.90
50606;DHT22;36557;53.572;10.170;2022-10-16T12:12:01;19.30;99.90
50606;DHT22;36557;53.572;10.170;2022-10-16T12:14:40;19.00;99.90
50606;DHT22;36557;53.572;10.170;2022-10-16T12:17:24;18.60;99.90
50606;DHT22;36557;53.572;10.170;2022-10-16T12:22:58;19.10;99.90
50606;DHT22;36557;53.572;10.170;2022-10-16T12:30:42;19.30;99.90
50606;DHT22;36557;53.572;10.170;2022-10-16T12:33:30;19.20;99.90
50606;DHT22;36557;53.572;10.170;2022-10-16T12:36:01;19.40;99.90
50606;DHT22;36557;53.572;10.170;2022-10-16T12:38:57;19.20;99.90
50606;DHT22;36557;53.572;10.170;2022-10-16T12:41:34;19.30;99.90
50606;DHT22;36557;53.572;10.170;2022-10-16T12:44:05;19.30;99.90
50606;DHT22;36557;53.572;10.170;2022-10-16T12:46:41;19.30;99.90
50606;DHT22;36557;53.572;10.170;2022-10-16T12:49:35;19.00;99.90
50606;DHT22;36557;53.572;10.170;2022-10-16T12:52:04;19.10;99.90
50606;DHT22;36557;53.572;10.170;2022-10-16T12:54:37;19.20;99.90
50606;DHT22;36557;53.572;10.170;2022-10-16T13:00:04;19.30;99.90
50606;DHT22;36557;53.572;10.170;2022-10-16T13:05:54;19.10;99.90
50606;DHT22;36557;53.572;10.170;2022-10-16T13:16:26;19.20;99.90
50606;DHT22;36557;53.572;10.170;2022-10-16T13:22:13;18.60;99.90
50606;DHT22;36557;53.572;10.170;2022-10-16T13:24:59;18.80;99.90
50606;DHT22;36557;53.572;10.170;2022-10-16T13:27:54;18.90;99.90
50606;DHT22;36557;53.572;10.170;2022-10-16T13:30:31;18.90;99.90
50606;DHT22;36557;53.572;10.170;2022-10-16T13:33:02;18.90;99.90
50606;DHT22;36557;53.572;10.170;2022-10-16T13:35:32;19.00;99.90
50606;DHT22;36557;53.572;10.170;2022-10-16T13:38:08;19.00;99.90
50606;DHT22;36557;53.572;10.170;2022-10-16T13:40:36;18.80;99.90
50606;DHT22;36557;53.572;10.170;2022-10-16T13:43:02;18.70;99.90
50606;DHT22;36557;53.572;10.170;2022-10-16T13:45:28;18.60;99.90
50606;DHT22;36557;53.572;10.170;2022-10-16T13:48:09;18.40;99.90
50606;DHT22;36557;53.572;10.170;2022-10-16T13:50:35;18.10;99.90
50606;DHT22;36557;53.572;10.170;2022-10-16T13:53:13;18.10;99.90
50606;DHT22;36557;53.572;10.170;2022-10-16T13:55:39;18.00;99.90
50606;DHT22;36557;53.572;10.170;2022-10-16T13:58:11;18.10;99.90
50606;DHT22;36557;53.572;10.170;2022-10-16T14:00:38;18.00;99.90
50606;DHT22;36557;53.572;10.170;2022-10-16T14:03:07;18.00;99.90
50606;DHT22;36557;53.572;10.170;2022-10-16T14:05:39;18.10;99.90
50606;DHT22;36557;53.572;10.170;2022-10-16T14:08:10;18.20;99.90
50606;DHT22;36557;53.572;10.170;2022-10-16T14:10:36;18.20;99.90
50606;DHT22;36557;53.572;10.170;2022-10-16T14:13:06;18.30;99.90
50606;DHT22;36557;53.572;10.170;2022-10-16T14:18:01;18.30;99.90
50606;DHT22;36557;53.572;10.170;2022-10-16T14:20:30;18.20;99.90
50606;DHT22;36557;53.572;10.170;2022-10-16T14:23:16;18.10;99.90
50606;DHT22;36557;53.572;10.170;2022-10-16T14:25:44;17.90;99.90
50606;DHT22;36557;53.572;10.170;2022-10-16T14:28:21;17.90;99.90
50606;DHT22;36557;53.572;10.170;2022-10-16T14:31:01;17.70;99.90
50606;DHT22;36557;53.572;10.170;2022-10-16T14:38:38;17.50;99.90
50606;DHT22;36557;53.572;10.170;2022-10-16T14:41:05;17.50;99.90
50606;DHT22;36557;53.572;10.170;2022-10-16T14:43:42;17.60;99.90
50606;DHT22;36557;53.572;10.170;2022-10-16T14:46:19;17.50;99.90
50606;DHT22;36557;53.572;10.170;2022-10-16T14:48:51;17.50;99.90
50606;DHT22;36557;53.572;10.170;2022-10-16T14:51:20;17.50;99.90
50606;DHT22;36557;53.572;10.170;2022-10-16T14:53:46;17.60;99.90
50606;DHT22;36557;53.572;10.170;2022-10-16T14:56:20;17.50;99.90
50606;DHT22;36557;53.572;10.170;2022-10-16T14:58:47;17.50;99.90
50606;DHT22;36557;53.572;10.170;2022-10-16T15:01:13;17.40;99.90
50606;DHT22;36557;53.572;10.170;2022-10-16T15:03:39;17.50;99.90
50606;DHT22;36557;53.572;10.170;2022-10-16T15:06:13;17.50;99.90
50606;DHT22;36557;53.572;10.170;2022-10-16T15:08:39;17.40;99.90
50606;DHT22;36557;53.572;10.170;2022-10-16T15:11:09;17.40;99.90
50606;DHT22;36557;53.572;10.170;2022-10-16T15:13:36;17.40;99.90
50606;DHT22;36557;53.572;10.170;2022-10-16T15:16:01;17.30;99.90
50606;DHT22;36557;53.572;10.170;2022-10-16T15:18:27;17.20;99.90
50606;DHT22;36557;53.572;10.170;2022-10-16T15:20:53;17.20;99.90
50606;DHT22;36557;53.572;10.170;2022-10-16T15:23:21;17.10;99.90
50606;DHT22;36557;53.572;10.170;2022-10-16T15:25:55;17.00;99.90
50606;DHT22;36557;53.572;10.170;2022-10-16T15:28:22;16.90;99.90
50606;DHT22;36557;53.572;10.170;2022-10-16T15:30:55;16.80;99.90
50606;DHT22;36557;53.572;10.170;2022-10-16T15:33:24;16.70;99.90
50606;DHT22;36557;53.572;10.170;2022-10-16T15:35:53;16.70;99.90
50606;DHT22;36557;53.572;10.170;2022-10-16T15:38:20;16.70;99.90
50606;DHT22;36557;53.572;10.170;2022-10-16T15:40:47;16.60;99.90
50606;DHT22;36557;53.572;10.170;2022-10-16T15:43:13;16.50;99.90
50606;DHT22;36557;53.572;10.170;2022-10-16T15:45:39;16.40;99.90
50606;DHT22;36557;53.572;10.170;2022-10-16T15:48:05;16.40;99.90
50606;DHT22;36557;53.572;10.170;2022-10-16T15:50:31;16.30;99.90
50606;DHT22;36557;53.572;10.170;2022-10-16T15:52:57;16.20;99.90
50606;DHT22;36557;53.572;10.170;2022-10-16T15:55:23;16.10;99.90
50606;DHT22;36557;53.572;10.170;2022-10-16T15:57:49;16.00;99.90
50606;DHT22;36557;53.572;10.170;2022-10-16T16:00:18;16.00;99.90
50606;DHT22;36557;53.572;10.170;2022-10-16T16:02:50;15.90;99.90
50606;DHT22;36557;53.572;10.170;2022-10-16T16:05:17;15.80;99.90
50606;DHT22;36557;53.572;10.170;2022-10-16T16:07:42;15.80;99.90
50606;DHT22;36557;53.572;10.170;2022-10-16T16:10:10;15.70;99.90
50606;DHT22;36557;53.572;10.170;2022-10-16T16:12:37;15.60;99.90
50606;DHT22;36557;53.572;10.170;2022-10-16T16:15:04;15.50;99.90
50606;DHT22;36557;53.572;10.170;2022-10-16T16:17:31;15.50;99.90
50606;DHT22;36557;53.572;10.170;2022-10-16T16:19:57;15.40;99.90
50606;DHT22;36557;53.572;10.170;2022-10-16T16:22:23;15.30;99.90
50606;DHT22;36557;53.572;10.170;2022-10-16T16:24:49;15.20;99.90
50606;DHT22;36557;53.572;10.170;2022-10-16T16:27:15;15.20;99.90
50606;DHT22;36557;53.572;10.170;2022-10-16T16:29:41;15.10;99.90
50606;DHT22;36557;53.572;10.170;2022-10-16T16:32:06;15.00;99.90
50606;DHT22;36557;53.572;10.170;2022-10-16T16:34:32;15.00;99.90
50606;DHT22;36557;53.572;10.170;2022-10-16T16:36:58;14.90;99.90
50606;DHT22;36557;53.572;10.170;2022-10-16T16:39:24;14.90;99.90
50606;DHT22;36557;53.572;10.170;2022-10-16T16:41:50;14.80;99.90
50606;DHT22;36557;53.572;10.170;2022-10-16T16:44:16;14.80;99.90
50606;DHT22;36557;53.572;10.170;2022-10-16T16:46:43;14.70;99.90
50606;DHT22;36557;53.572;10.170;2022-10-16T16:49:11;14.70;99.90
50606;DHT22;36557;53.572;10.170;2022-10-16T16:51:37;14.60;99.90
50606;DHT22;36557;53.572;10.170;2022-10-16T16:54:04;14.50;99.90
50606;DHT22;36557;53.572;10.170;2022-10-16T16:56:29;14.50;99.90
50606;DHT22;36557;53.572;10.170;2022-10-16T16:58:56;14.40;99.90
50606;DHT22;36557;53.572;10.170;2022-10-16T17:01:24;14.30;99.90
50606;DHT22;36557;53.572;10.170;2022-10-16T17:03:51;14.20;99.90
50606;DHT22;36557;53.572;10.170;2022-10-16T17:06:22;14.10;99.90
50606;DHT22;36557;53.572;10.170;2022-10-16T17:08:48;14.10;99.90
50606;DHT22;36557;53.572;10.170;2022-10-16T17:11:17;14.10;99.90
50606;DHT22;36557;53.572;10.170;2022-10-16T17:13:43;14.10;99.90
50606;DHT22;36557;53.572;10.170;2022-10-16T17:16:10;14.00;99.90